createdAt,value
2023-01-17T00:01:57.214Z,100.00
2023-01-17T00:05:04.214Z,100.00
2023-01-17T00:07:50.791Z,100.00
2023-01-17T00:10:23.954Z,100.00
2023-01-17T00:13:15.928Z,100.00
2023-01-17T00:16:07.934Z,100.00
2023-01-17T00:19:14.034Z,100.00
2023-01-17T00:22:00.769Z,100.00
2023-01-17T00:24:50.033Z,100.00
2023-01-17T00:27:24.938Z,100.00
2023-01-17T00:30:15.004Z,100.00
2023-01-17T00:33:03.990Z,100.00
2023-01-17T00:35:55.814Z,100.00
2023-01-17T00:38:28.458Z,100.00
2023-01-17T00:41:15.690Z,100.00
2023-01-17T00:44:02.345Z,100.00
2023-01-17T00:46:49.336Z,100.00
2023-01-17T00:49:35.314Z,100.00
2023-01-17T00:52:21.680Z,100.00
2023-01-17T00:55:07.639Z,100.00
2023-01-17T00:57:53.919Z,100.00
2023-01-17T01:00:40.275Z,100.00
2023-01-17T01:03:29.218Z,100.00
2023-01-17T01:06:15.906Z,100.00
2023-01-17T01:09:01.835Z,100.00
2023-01-17T01:11:49.023Z,100.00
2023-01-17T01:14:57.228Z,100.00
2023-01-17T01:17:47.600Z,100.00
2023-01-17T01:20:58.669Z,100.00
2023-01-17T01:23:44.603Z,100.00
2023-01-17T01:26:50.683Z,100.00
2023-01-17T01:29:39.634Z,100.00
2023-01-17T01:32:25.655Z,100.00
2023-01-17T01:34:59.438Z,100.00
2023-01-17T01:37:52.440Z,100.00
2023-01-17T01:40:47.939Z,100.00
2023-01-17T01:43:44.187Z,100.00
2023-01-17T01:46:38.480Z,100.00
2023-01-17T01:49:35.399Z,100.00
2023-01-17T01:52:29.489Z,100.00
2023-01-17T01:55:29.673Z,100.00
2023-01-17T01:58:26.670Z,100.00
2023-01-17T02:01:30.566Z,100.00
2023-01-17T02:04:21.833Z,100.00
2023-01-17T02:07:19.887Z,100.00
2023-01-17T02:10:10.807Z,100.00
2023-01-17T02:13:01.605Z,100.00
2023-01-17T02:16:10.770Z,100.00
2023-01-17T02:18:53.743Z,100.00
2023-01-17T02:22:03.314Z,100.00
2023-01-17T02:25:15.987Z,100.00
2023-01-17T02:28:32.271Z,100.00
2023-01-17T02:31:30.536Z,100.00
2023-01-17T02:34:37.572Z,100.00
2023-01-17T02:37:34.115Z,100.00
2023-01-17T02:40:31.472Z,100.00
2023-01-17T02:43:08.076Z,100.00
2023-01-17T02:45:56.630Z,100.00
2023-01-17T02:48:49.389Z,100.00
2023-01-17T02:52:01.744Z,100.00
2023-01-17T02:55:15.174Z,100.00
2023-01-17T02:58:22.724Z,100.00
2023-01-17T03:01:35.958Z,100.00
2023-01-17T03:04:33.811Z,100.00
2023-01-17T03:07:25.225Z,100.00
2023-01-17T03:10:18.540Z,100.00
2023-01-17T03:13:12.684Z,100.00
2023-01-17T03:15:44.085Z,100.00
2023-01-17T03:18:18.407Z,100.00
2023-01-17T03:21:26.254Z,100.00
2023-01-17T03:24:17.918Z,100.00
2023-01-17T03:27:08.744Z,100.00
2023-01-17T03:30:05.791Z,100.00
2023-01-17T03:33:02.639Z,100.00
2023-01-17T03:35:59.540Z,100.00
2023-01-17T03:38:48.032Z,100.00
2023-01-17T03:41:40.747Z,100.00
2023-01-17T03:44:35.642Z,100.00
2023-01-17T03:47:25.604Z,100.00
2023-01-17T03:50:19.265Z,100.00
2023-01-17T03:53:17.031Z,100.00
2023-01-17T03:55:47.668Z,100.00
2023-01-17T03:58:38.125Z,100.00
2023-01-17T04:01:29.084Z,100.00
2023-01-17T04:04:31.459Z,100.00
2023-01-17T04:07:20.363Z,100.00
2023-01-17T04:10:16.901Z,100.00
2023-01-17T04:13:16.480Z,100.00
2023-01-17T04:16:11.532Z,100.00
2023-01-17T04:19:17.096Z,100.00
2023-01-17T04:22:10.794Z,100.00
2023-01-17T04:25:01.350Z,100.00
2023-01-17T04:27:53.491Z,100.00
2023-01-17T04:30:43.320Z,100.00
2023-01-17T04:33:41.942Z,100.00
2023-01-17T04:36:31.704Z,100.00
2023-01-17T04:39:22.416Z,100.00
2023-01-17T04:45:01.175Z,100.00
2023-01-17T04:47:37.624Z,100.00
2023-01-17T04:50:29.044Z,100.00
2023-01-17T04:53:00.608Z,100.00
2023-01-17T04:56:04.653Z,100.00
2023-01-17T04:59:16.641Z,100.00
2023-01-17T05:02:11.951Z,100.00
2023-01-17T05:05:03.441Z,100.00
2023-01-17T05:07:58.251Z,100.00
2023-01-17T05:10:30.784Z,100.00
2023-01-17T05:13:23.441Z,100.00
2023-01-17T05:16:14.769Z,100.00
2023-01-17T05:18:43.496Z,100.00
2023-01-17T05:21:19.657Z,100.00
2023-01-17T05:24:09.857Z,100.00
2023-01-17T05:27:04.367Z,100.00
2023-01-17T05:29:56.435Z,100.00
2023-01-17T05:32:31.785Z,100.00
2023-01-17T05:35:29.428Z,100.00
2023-01-17T05:38:29.035Z,100.00
2023-01-17T05:41:19.717Z,100.00
2023-01-17T05:44:09.370Z,100.00
2023-01-17T05:46:59.649Z,100.00
2023-01-17T05:49:58.846Z,100.00
2023-01-17T05:52:52.615Z,100.00
2023-01-17T05:55:27.220Z,100.00
2023-01-17T05:58:16.398Z,100.00
2023-01-17T06:01:19.881Z,100.00
2023-01-17T06:03:56.010Z,100.00
2023-01-17T06:06:44.451Z,100.00
2023-01-17T06:09:34.496Z,100.00
2023-01-17T06:12:23.601Z,100.00
2023-01-17T06:15:22.949Z,100.00
2023-01-17T06:18:20.495Z,100.00
2023-01-17T06:21:01.338Z,100.00
2023-01-17T06:23:50.726Z,100.00
2023-01-17T06:26:40.544Z,100.00
2023-01-17T06:29:37.773Z,100.00
2023-01-17T06:32:35.650Z,100.00
2023-01-17T06:35:03.355Z,100.00
2023-01-17T06:37:30.930Z,100.00
2023-01-17T06:39:59.073Z,100.00
2023-01-17T06:42:30.052Z,100.00
2023-01-17T06:44:58.215Z,100.00
2023-01-17T06:47:27.599Z,100.00
2023-01-17T06:49:58.081Z,100.00
2023-01-17T06:52:26.290Z,100.00
2023-01-17T06:54:57.283Z,100.00
2023-01-17T06:57:31.040Z,100.00
2023-01-17T06:59:58.908Z,100.00
2023-01-17T07:02:28.338Z,100.00
2023-01-17T07:04:57.164Z,100.00
2023-01-17T07:07:25.276Z,100.00
2023-01-17T07:09:54.953Z,100.00
2023-01-17T07:12:22.562Z,100.00
2023-01-17T07:14:50.359Z,100.00
2023-01-17T07:17:19.240Z,100.00
2023-01-17T07:20:15.551Z,100.00
2023-01-17T07:22:48.572Z,100.00
2023-01-17T07:25:19.427Z,100.00
2023-01-17T07:27:50.194Z,100.00
2023-01-17T07:30:18.943Z,100.00
2023-01-17T07:32:56.019Z,100.00
2023-01-17T07:35:25.973Z,100.00
2023-01-17T07:37:54.917Z,100.00
2023-01-17T07:40:22.761Z,100.00
2023-01-17T07:42:50.471Z,100.00
2023-01-17T07:45:19.262Z,100.00
2023-01-17T07:48:00.996Z,100.00
2023-01-17T07:50:28.582Z,100.00
2023-01-17T07:52:59.331Z,100.00
2023-01-17T07:55:28.138Z,100.00
2023-01-17T07:57:57.419Z,100.00
2023-01-17T08:00:30.315Z,100.00
2023-01-17T08:03:00.672Z,100.00
2023-01-17T08:05:30.344Z,100.00
2023-01-17T08:08:01.800Z,100.00
2023-01-17T08:10:30.450Z,100.00
2023-01-17T08:13:00.451Z,100.00
2023-01-17T08:15:28.333Z,100.00
2023-01-17T08:18:00.248Z,100.00
2023-01-17T08:20:28.371Z,100.00
2023-01-17T08:23:00.097Z,100.00
2023-01-17T08:25:29.969Z,100.00
2023-01-17T08:27:58.401Z,100.00
2023-01-17T08:30:27.655Z,100.00
2023-01-17T08:32:55.973Z,100.00
2023-01-17T08:35:26.172Z,100.00
2023-01-17T08:37:55.772Z,100.00
2023-01-17T08:40:25.052Z,100.00
2023-01-17T08:43:00.876Z,100.00
2023-01-17T08:45:31.357Z,100.00
2023-01-17T08:47:59.784Z,100.00
2023-01-17T08:50:27.777Z,100.00
2023-01-17T08:53:01.280Z,100.00
2023-01-17T08:55:29.775Z,100.00
2023-01-17T08:57:57.701Z,100.00
2023-01-17T09:00:26.521Z,100.00
2023-01-17T09:02:54.226Z,100.00
2023-01-17T09:05:26.967Z,100.00
2023-01-17T09:07:56.167Z,100.00
2023-01-17T09:10:24.518Z,100.00
2023-01-17T09:12:54.138Z,100.00
2023-01-17T09:15:23.448Z,100.00
2023-01-17T09:17:55.095Z,100.00
2023-01-17T09:20:24.842Z,100.00
2023-01-17T09:22:53.659Z,100.00
2023-01-17T09:25:25.951Z,100.00
2023-01-17T09:27:53.571Z,100.00
2023-01-17T09:30:23.767Z,100.00
2023-01-17T09:32:57.841Z,100.00
2023-01-17T09:35:25.472Z,100.00
2023-01-17T09:37:57.342Z,100.00
2023-01-17T09:40:26.632Z,100.00
2023-01-17T09:43:08.816Z,100.00
2023-01-17T09:45:42.645Z,100.00
2023-01-17T09:48:28.824Z,100.00
2023-01-17T09:51:01.327Z,100.00
2023-01-17T09:53:37.147Z,100.00
2023-01-17T09:56:20.768Z,100.00
2023-01-17T09:58:59.553Z,100.00
2023-01-17T10:01:38.576Z,100.00
2023-01-17T10:04:20.211Z,100.00
2023-01-17T10:07:05.782Z,100.00
2023-01-17T10:09:49.454Z,100.00
2023-01-17T10:12:33.064Z,100.00
2023-01-17T10:15:28.951Z,100.00
2023-01-17T10:18:16.619Z,100.00
2023-01-17T10:20:56.270Z,100.00
2023-01-17T10:23:43.394Z,100.00
2023-01-17T10:26:20.776Z,100.00
2023-01-17T10:28:50.954Z,100.00
2023-01-17T10:31:25.166Z,100.00
2023-01-17T10:33:57.372Z,100.00
2023-01-17T10:36:27.374Z,100.00
2023-01-17T10:39:03.835Z,100.00
2023-01-17T10:41:36.872Z,100.00
2023-01-17T10:44:12.366Z,100.00
2023-01-17T10:46:51.373Z,100.00
2023-01-17T10:49:21.921Z,100.00
2023-01-17T10:52:12.226Z,100.00
2023-01-17T10:54:59.712Z,100.00
2023-01-17T10:57:31.927Z,100.00
2023-01-17T11:00:01.770Z,100.00
2023-01-17T11:02:36.454Z,100.00
2023-01-17T11:05:20.759Z,100.00
2023-01-17T11:10:48.509Z,100.00
2023-01-17T11:13:24.769Z,100.00
2023-01-17T11:15:57.217Z,100.00
2023-01-17T11:18:31.376Z,100.00
2023-01-17T11:21:14.835Z,100.00
2023-01-17T11:23:47.387Z,100.00
2023-01-17T11:26:25.444Z,100.00
2023-01-17T11:29:12.428Z,100.00
2023-01-17T11:34:31.287Z,100.00
2023-01-17T11:37:16.059Z,100.00
2023-01-17T11:39:47.408Z,100.00
2023-01-17T11:42:38.739Z,100.00
2023-01-17T11:45:25.585Z,100.00
2023-01-17T11:48:18.115Z,100.00
2023-01-17T11:50:55.343Z,100.00
2023-01-17T11:53:26.827Z,100.00
2023-01-17T11:56:01.237Z,100.00
2023-01-17T11:58:33.609Z,100.00
2023-01-17T12:01:15.606Z,100.00
2023-01-17T12:04:28.922Z,100.00
2023-01-17T12:07:26.262Z,100.00
2023-01-17T12:10:07.482Z,100.00
2023-01-17T12:13:07.241Z,100.00
2023-01-17T12:15:53.305Z,100.00
2023-01-17T12:18:39.503Z,100.00
2023-01-17T12:21:20.924Z,100.00
2023-01-17T12:24:10.033Z,100.00
2023-01-17T12:26:41.992Z,100.00
2023-01-17T12:29:48.058Z,100.00
2023-01-17T12:32:41.197Z,100.00
2023-01-17T12:35:18.607Z,100.00
2023-01-17T12:38:04.165Z,100.00
2023-01-17T12:40:42.166Z,100.00
2023-01-17T12:43:19.137Z,100.00
2023-01-17T12:45:47.186Z,100.00
2023-01-17T12:48:22.870Z,100.00
2023-01-17T12:50:59.009Z,100.00
2023-01-17T12:53:39.910Z,100.00
2023-01-17T12:56:13.987Z,100.00
2023-01-17T12:58:45.898Z,100.00
2023-01-17T13:01:23.061Z,100.00
2023-01-17T13:04:06.855Z,99.66
2023-01-17T13:06:54.276Z,97.85
2023-01-17T13:09:23.877Z,92.58
2023-01-17T13:11:55.153Z,84.93
2023-01-17T13:14:24.622Z,82.52
2023-01-17T13:16:59.518Z,77.63
2023-01-17T13:19:46.379Z,72.45
2023-01-17T13:22:21.725Z,69.67
2023-01-17T13:24:59.788Z,70.47
2023-01-17T13:27:44.394Z,67.86
2023-01-17T13:30:43.575Z,67.34
2023-01-17T13:33:36.678Z,64.68
2023-01-17T13:36:29.668Z,65.51
2023-01-17T13:39:38.664Z,63.60
2023-01-17T13:42:27.027Z,62.91
2023-01-17T13:44:55.396Z,62.27
2023-01-17T13:47:42.795Z,60.01
2023-01-17T13:50:27.797Z,59.70
2023-01-17T13:52:57.306Z,61.25
2023-01-17T13:55:47.027Z,61.23
2023-01-17T13:58:53.899Z,60.45
2023-01-17T14:01:49.790Z,59.60
2023-01-17T14:04:17.700Z,63.12
2023-01-17T14:06:56.023Z,65.83
2023-01-17T14:09:36.356Z,68.20
2023-01-17T14:12:25.185Z,69.66
2023-01-17T14:14:59.851Z,71.40
2023-01-17T14:17:50.158Z,73.01
2023-01-17T14:21:03.598Z,74.25
2023-01-17T14:24:06.620Z,76.22
2023-01-17T14:26:55.321Z,77.91
2023-01-17T14:29:46.217Z,79.60
2023-01-17T14:32:18.343Z,80.27
2023-01-17T14:34:48.533Z,80.66
2023-01-17T14:37:29.768Z,81.18
2023-01-17T14:39:57.355Z,81.23
2023-01-17T14:42:28.947Z,82.09
2023-01-17T14:45:01.397Z,82.88
2023-01-17T14:47:35.432Z,83.38
2023-01-17T14:50:15.796Z,84.34
2023-01-17T14:52:44.378Z,85.56
2023-01-17T14:55:17.235Z,86.45
2023-01-17T14:57:57.216Z,87.31
2023-01-17T15:00:31.271Z,88.11
2023-01-17T15:03:03.188Z,88.87
2023-01-17T15:05:33.777Z,89.56
2023-01-17T15:08:02.198Z,89.65
2023-01-17T15:10:32.606Z,90.10
2023-01-17T15:13:09.840Z,90.71
2023-01-17T15:15:39.224Z,91.37
2023-01-17T15:18:19.231Z,91.69
2023-01-17T15:20:52.931Z,92.40
2023-01-17T15:23:25.126Z,92.91
2023-01-17T15:25:54.696Z,93.42
2023-01-17T15:28:34.956Z,94.11
2023-01-17T15:31:16.929Z,94.47
2023-01-17T15:33:46.773Z,94.75
2023-01-17T15:36:27.235Z,95.11
2023-01-17T15:38:59.458Z,95.61
2023-01-17T15:41:33.754Z,96.19
2023-01-17T15:44:02.616Z,96.45
2023-01-17T15:46:47.365Z,96.76
2023-01-17T15:49:36.501Z,97.15
2023-01-17T15:52:16.197Z,97.88
2023-01-17T15:54:53.135Z,98.68
2023-01-17T15:57:30.400Z,99.30
2023-01-17T16:00:19.662Z,99.65
2023-01-17T16:02:49.894Z,99.71
2023-01-17T16:05:42.857Z,100.00
2023-01-17T16:08:39.193Z,100.00
2023-01-17T16:11:11.393Z,100.00
2023-01-17T16:13:53.887Z,100.00
2023-01-17T16:16:27.520Z,100.00
2023-01-17T16:19:01.096Z,100.00
2023-01-17T16:21:35.641Z,100.00
2023-01-17T16:24:09.854Z,100.00
2023-01-17T16:26:38.977Z,100.00
2023-01-17T16:29:11.004Z,100.00
2023-01-17T16:31:40.723Z,100.00
2023-01-17T16:34:13.397Z,100.00
2023-01-17T16:36:46.793Z,100.00
2023-01-17T16:39:21.276Z,100.00
2023-01-17T16:41:58.010Z,100.00
2023-01-17T16:44:26.532Z,100.00
2023-01-17T16:46:59.557Z,100.00
2023-01-17T16:49:32.923Z,100.00
2023-01-17T16:52:01.885Z,100.00
2023-01-17T16:54:37.396Z,100.00
2023-01-17T16:57:07.249Z,100.00
2023-01-17T16:59:55.564Z,100.00
2023-01-17T17:02:23.239Z,100.00
2023-01-17T17:04:52.244Z,100.00
2023-01-17T17:10:04.828Z,100.00
2023-01-17T17:15:50.987Z,100.00
2023-01-17T17:18:41.366Z,100.00
2023-01-17T17:21:33.263Z,100.00
2023-01-17T17:24:37.011Z,100.00
2023-01-17T17:27:31.494Z,100.00
2023-01-17T17:30:19.947Z,100.00
2023-01-17T17:33:29.159Z,100.00
2023-01-17T17:36:22.642Z,100.00
2023-01-17T17:39:17.933Z,100.00
2023-01-17T17:41:57.898Z,100.00
2023-01-17T17:44:27.702Z,100.00
2023-01-17T17:47:19.269Z,100.00
2023-01-17T17:50:15.271Z,100.00
2023-01-17T17:53:04.228Z,100.00
2023-01-17T17:55:35.968Z,100.00
2023-01-17T17:58:23.189Z,100.00
2023-01-17T18:01:25.954Z,100.00
2023-01-17T18:03:59.718Z,100.00
2023-01-17T18:06:46.648Z,100.00
2023-01-17T18:09:38.947Z,100.00
2023-01-17T18:12:30.792Z,100.00
2023-01-17T18:15:05.818Z,100.00
2023-01-17T18:18:16.457Z,100.00
2023-01-17T18:20:56.826Z,100.00
2023-01-17T18:23:57.772Z,100.00
2023-01-17T18:27:10.371Z,100.00
2023-01-17T18:29:44.545Z,100.00
2023-01-17T18:32:46.346Z,100.00
2023-01-17T18:35:54.811Z,100.00
2023-01-17T18:38:53.977Z,100.00
2023-01-17T18:41:46.885Z,100.00
2023-01-17T18:44:43.624Z,100.00
2023-01-17T18:47:45.286Z,100.00
2023-01-17T18:50:41.982Z,100.00
2023-01-17T18:53:38.667Z,100.00
2023-01-17T18:56:46.472Z,100.00
2023-01-17T19:00:04.744Z,100.00
2023-01-17T19:03:01.526Z,100.00
2023-01-17T19:05:43.439Z,100.00
2023-01-17T19:08:27.347Z,100.00
2023-01-17T19:11:43.697Z,100.00
2023-01-17T19:17:47.218Z,100.00
2023-01-17T19:21:11.355Z,100.00
2023-01-17T19:24:06.004Z,100.00
2023-01-17T19:27:07.489Z,100.00
2023-01-17T19:30:19.761Z,100.00
2023-01-17T19:36:52.308Z,100.00
2023-01-17T19:39:34.969Z,100.00
2023-01-17T19:42:49.432Z,100.00
2023-01-17T19:46:06.278Z,100.00
2023-01-17T19:49:14.177Z,100.00
2023-01-17T19:52:16.334Z,100.00
2023-01-17T19:55:15.005Z,100.00
2023-01-17T19:58:17.317Z,100.00
2023-01-17T20:01:58.556Z,100.00
2023-01-17T20:04:51.024Z,100.00
2023-01-17T20:11:20.464Z,100.00
2023-01-17T20:14:40.941Z,100.00
2023-01-17T20:17:43.731Z,100.00
2023-01-17T20:20:58.038Z,100.00
2023-01-17T20:23:46.674Z,100.00
2023-01-17T20:26:44.525Z,100.00
2023-01-17T20:29:27.688Z,100.00
2023-01-17T20:32:36.241Z,100.00
2023-01-17T20:36:10.027Z,100.00
2023-01-17T20:42:40.884Z,100.00
2023-01-17T20:45:39.631Z,100.00
2023-01-17T20:48:46.364Z,100.00
2023-01-17T20:51:25.927Z,100.00
2023-01-17T20:54:27.670Z,100.00
2023-01-17T20:57:30.693Z,100.00
2023-01-17T21:00:41.439Z,100.00
2023-01-17T21:03:35.109Z,100.00
2023-01-17T21:06:31.767Z,100.00
2023-01-17T21:09:14.001Z,100.00
2023-01-17T21:12:05.811Z,100.00
2023-01-17T21:15:03.807Z,100.00
2023-01-17T21:18:08.764Z,100.00
2023-01-17T21:21:09.437Z,100.00
2023-01-17T21:23:44.352Z,100.00
2023-01-17T21:26:52.474Z,100.00
2023-01-17T21:29:43.928Z,100.00
2023-01-17T21:32:38.527Z,100.00
2023-01-17T21:35:43.109Z,100.00
2023-01-17T21:38:52.342Z,100.00
2023-01-17T21:42:13.066Z,100.00
2023-01-17T21:45:14.028Z,100.00
2023-01-17T21:48:25.986Z,100.00
2023-01-17T21:51:11.586Z,100.00
2023-01-17T21:54:10.083Z,100.00
2023-01-17T21:57:18.331Z,100.00
2023-01-17T22:00:15.056Z,100.00
2023-01-17T22:02:53.699Z,100.00
2023-01-17T22:05:46.469Z,100.00
2023-01-17T22:08:40.953Z,100.00
2023-01-17T22:11:37.675Z,100.00
2023-01-17T22:14:34.599Z,100.00
2023-01-17T22:17:39.172Z,100.00
2023-01-17T22:20:54.763Z,100.00
2023-01-17T22:23:56.751Z,100.00
2023-01-17T22:27:17.756Z,100.00
2023-01-17T22:30:38.053Z,100.00
2023-01-17T22:33:45.331Z,100.00
2023-01-17T22:36:47.290Z,100.00
2023-01-17T22:39:55.229Z,100.00
2023-01-17T22:42:56.137Z,100.00
2023-01-17T22:46:09.190Z,100.00
2023-01-17T22:48:54.050Z,100.00
2023-01-17T22:52:09.114Z,100.00
2023-01-17T22:55:20.118Z,100.00
2023-01-17T22:58:19.963Z,100.00
2023-01-17T23:00:50.339Z,100.00
2023-01-17T23:03:53.789Z,100.00
2023-01-17T23:06:47.767Z,100.00
2023-01-17T23:09:42.009Z,100.00
2023-01-17T23:12:17.017Z,100.00
2023-01-17T23:15:50.948Z,100.00
2023-01-17T23:19:07.086Z,100.00
2023-01-17T23:22:21.329Z,100.00
2023-01-17T23:25:19.250Z,100.00
2023-01-17T23:28:29.637Z,100.00
2023-01-17T23:31:27.678Z,100.00
2023-01-17T23:34:47.708Z,100.00
2023-01-17T23:37:59.997Z,100.00
2023-01-17T23:41:23.443Z,100.00
2023-01-17T23:44:05.614Z,100.00
